Airfield :
LOGIN :

Register | Disclaimer

   EN    FR    IT 

 










Legend :    VFR   Marginal VFR   IFR   Intensive IFR   Very Intensive IFR
Visi :
Ceiling :
>= 8 km
>= 3000ft
5 to 8 km
1000 to 3000 ft
1500m to 5 km
500 to 1000 ft
800 to 1500m
200 to 500 ft
< 800m
< 200 ft
Symbols :   Thunderstorms  Fog  Heavy snow  Heavy precipitations  Wind > 20 kt
SIGMETs :     Misc.  Thunderstorms  Icing  Turbulence  Mountain Waves  Volcanic Ashes






- Airport Elevation : 373 ft
- IATA code : OZH


UKDE - Mokraya

CURRENT METAR :
  • 270200Z 15003MPS 120V180 CAVOK 05/02 Q1000 R20L/090070 NOSIG

EXPIRED METARs :
  • 270100Z 16005MPS CAVOK 05/02 Q1000 R20L/090070 NOSIG
  • 270000Z 17004MPS 130V200 CAVOK 05/03 Q1001 R20L/090070 NOSIG
  • 262330Z 17004MPS CAVOK 05/03 Q1001 R20L/090070 NOSIG

TAF TAF UKDE
Valid from the 27 at 00:00 until the 27 at 09:00 UTC


262302Z 2700/2709 17006MPS 9999 BKN020 TX10/2709Z TN04/2703Z
TEMPO 2700/2707 2100 BR BKN007
TEMPO 2707/2709 18007G12MPS



MET'MAP, your aeronautical weather chart ! - Copyright ORBIFLY December 2007 - Disclaimer

ORBIFLY MET'MAP TEAM :

Programming & Development : Alexandra Zaïnal
Concept & original design : Baudouin d'Aumeries
Assistance for programming : Marc-Olivier Méhu
Technical & hardware support : Manuel Goepfert

Contact : metmap@orbifly.com




SOURCES & CREDITS :

   NOAA